sensor_id;sensor_type;location;lat;lon;timestamp;pressure;altitude;pressure_sealevel;temperature;humidity
12536;BME280;6334;48.696;2.114;2022-07-18T00:01:09;100436.28;;;25.30;36.59
12536;BME280;6334;48.696;2.114;2022-07-18T00:03:39;100435.40;;;25.19;36.62
12536;BME280;6334;48.696;2.114;2022-07-18T00:06:10;100435.94;;;25.23;36.78
12536;BME280;6334;48.696;2.114;2022-07-18T00:08:41;100431.85;;;24.44;37.43
12536;BME280;6334;48.696;2.114;2022-07-18T00:11:11;100430.09;;;24.92;36.58
12536;BME280;6334;48.696;2.114;2022-07-18T00:13:41;100423.53;;;25.13;36.20
12536;BME280;6334;48.696;2.114;2022-07-18T00:16:12;100418.25;;;25.30;34.80
12536;BME280;6334;48.696;2.114;2022-07-18T00:18:42;100420.39;;;25.17;35.30
12536;BME280;6334;48.696;2.114;2022-07-18T00:21:13;100416.98;;;25.23;35.35
12536;BME280;6334;48.696;2.114;2022-07-18T00:23:43;100414.39;;;25.07;36.02
12536;BME280;6334;48.696;2.114;2022-07-18T00:26:14;100411.78;;;25.03;36.15
12536;BME280;6334;48.696;2.114;2022-07-18T00:28:44;100412.00;;;24.97;34.35
12536;BME280;6334;48.696;2.114;2022-07-18T00:31:15;100414.28;;;24.79;36.28
12536;BME280;6334;48.696;2.114;2022-07-18T00:33:45;100420.05;;;24.26;38.72
12536;BME280;6334;48.696;2.114;2022-07-18T00:36:16;100423.78;;;24.21;39.35
12536;BME280;6334;48.696;2.114;2022-07-18T00:38:46;100424.76;;;24.00;39.94
12536;BME280;6334;48.696;2.114;2022-07-18T00:41:16;100421.10;;;24.47;39.24
12536;BME280;6334;48.696;2.114;2022-07-18T00:43:47;100420.61;;;24.66;38.06
12536;BME280;6334;48.696;2.114;2022-07-18T00:46:23;100421.30;;;24.28;38.53
12536;BME280;6334;48.696;2.114;2022-07-18T00:48:51;100420.52;;;24.30;38.38
12536;BME280;6334;48.696;2.114;2022-07-18T00:51:21;100414.24;;;24.60;38.09
12536;BME280;6334;48.696;2.114;2022-07-18T00:53:51;100415.56;;;24.52;38.69
12536;BME280;6334;48.696;2.114;2022-07-18T00:56:25;100410.44;;;24.43;38.39
12536;BME280;6334;48.696;2.114;2022-07-18T00:58:55;100408.80;;;24.20;38.34
12536;BME280;6334;48.696;2.114;2022-07-18T01:01:26;100399.30;;;24.35;38.50
12536;BME280;6334;48.696;2.114;2022-07-18T01:04:18;100397.84;;;24.46;38.18
12536;BME280;6334;48.696;2.114;2022-07-18T01:06:47;100405.22;;;24.11;39.00
12536;BME280;6334;48.696;2.114;2022-07-18T01:09:18;100400.52;;;24.01;39.21
12536;BME280;6334;48.696;2.114;2022-07-18T01:11:48;100397.23;;;24.15;38.87
12536;BME280;6334;48.696;2.114;2022-07-18T01:14:19;100399.92;;;24.19;39.60
12536;BME280;6334;48.696;2.114;2022-07-18T01:16:52;100401.64;;;23.89;40.43
12536;BME280;6334;48.696;2.114;2022-07-18T01:19:22;100403.63;;;24.24;39.48
12536;BME280;6334;48.696;2.114;2022-07-18T01:21:53;100401.27;;;24.35;39.90
12536;BME280;6334;48.696;2.114;2022-07-18T01:24:23;100395.86;;;23.80;40.45
12536;BME280;6334;48.696;2.114;2022-07-18T01:26:56;100396.98;;;24.16;39.91
12536;BME280;6334;48.696;2.114;2022-07-18T01:29:27;100390.36;;;24.18;39.16
12536;BME280;6334;48.696;2.114;2022-07-18T01:32:07;100392.08;;;23.88;39.81
12536;BME280;6334;48.696;2.114;2022-07-18T01:34:28;100393.89;;;23.91;40.73
12536;BME280;6334;48.696;2.114;2022-07-18T01:36:59;100390.44;;;23.77;40.55
12536;BME280;6334;48.696;2.114;2022-07-18T01:39:29;100394.61;;;23.92;39.98
12536;BME280;6334;48.696;2.114;2022-07-18T01:42:02;100396.77;;;23.78;41.40
12536;BME280;6334;48.696;2.114;2022-07-18T01:44:30;100397.68;;;23.95;40.70
12536;BME280;6334;48.696;2.114;2022-07-18T01:47:01;100398.91;;;23.86;40.11
12536;BME280;6334;48.696;2.114;2022-07-18T01:49:31;100392.11;;;23.97;40.60
12536;BME280;6334;48.696;2.114;2022-07-18T01:52:02;100393.77;;;23.21;43.44
12536;BME280;6334;48.696;2.114;2022-07-18T01:54:32;100393.07;;;23.82;41.22
12536;BME280;6334;48.696;2.114;2022-07-18T01:57:03;100395.14;;;23.56;41.50
12536;BME280;6334;48.696;2.114;2022-07-18T01:59:33;100398.95;;;23.75;40.70
12536;BME280;6334;48.696;2.114;2022-07-18T02:02:04;100394.08;;;23.46;41.82
12536;BME280;6334;48.696;2.114;2022-07-18T02:04:34;100395.44;;;23.93;40.07
12536;BME280;6334;48.696;2.114;2022-07-18T02:07:22;100389.32;;;23.74;40.35
12536;BME280;6334;48.696;2.114;2022-07-18T02:09:53;100383.45;;;23.90;40.19
12536;BME280;6334;48.696;2.114;2022-07-18T02:12:23;100369.69;;;24.07;38.12
12536;BME280;6334;48.696;2.114;2022-07-18T02:14:54;100366.60;;;24.08;36.31
12536;BME280;6334;48.696;2.114;2022-07-18T02:17:24;100361.44;;;23.55;39.89
12536;BME280;6334;48.696;2.114;2022-07-18T02:19:55;100370.94;;;23.46;40.97
12536;BME280;6334;48.696;2.114;2022-07-18T02:22:25;100373.65;;;23.50;42.02
12536;BME280;6334;48.696;2.114;2022-07-18T02:24:56;100372.32;;;22.90;43.27
12536;BME280;6334;48.696;2.114;2022-07-18T02:27:26;100362.14;;;23.71;39.57
12536;BME280;6334;48.696;2.114;2022-07-18T02:29:57;100362.39;;;23.45;39.74
12536;BME280;6334;48.696;2.114;2022-07-18T02:32:27;100366.02;;;23.89;38.53
12536;BME280;6334;48.696;2.114;2022-07-18T02:34:58;100363.77;;;22.77;43.45
12536;BME280;6334;48.696;2.114;2022-07-18T02:37:28;100363.02;;;23.38;42.54
12536;BME280;6334;48.696;2.114;2022-07-18T02:39:59;100361.38;;;23.47;42.40
12536;BME280;6334;48.696;2.114;2022-07-18T02:42:29;100363.81;;;23.53;40.92
12536;BME280;6334;48.696;2.114;2022-07-18T02:45:00;100366.51;;;23.35;42.68
12536;BME280;6334;48.696;2.114;2022-07-18T02:47:30;100361.82;;;23.09;43.54
12536;BME280;6334;48.696;2.114;2022-07-18T02:50:01;100364.96;;;23.36;42.51
12536;BME280;6334;48.696;2.114;2022-07-18T02:52:31;100364.91;;;23.57;42.41
12536;BME280;6334;48.696;2.114;2022-07-18T02:55:02;100372.09;;;23.22;42.61
12536;BME280;6334;48.696;2.114;2022-07-18T02:57:32;100374.26;;;23.07;43.23
12536;BME280;6334;48.696;2.114;2022-07-18T03:00:03;100374.33;;;22.95;42.81
12536;BME280;6334;48.696;2.114;2022-07-18T03:02:33;100373.50;;;23.04;41.89
12536;BME280;6334;48.696;2.114;2022-07-18T03:05:04;100375.72;;;22.93;42.83
12536;BME280;6334;48.696;2.114;2022-07-18T03:07:34;100375.58;;;22.92;43.19
12536;BME280;6334;48.696;2.114;2022-07-18T03:10:04;100354.00;;;23.12;41.80
12536;BME280;6334;48.696;2.114;2022-07-18T03:12:35;100345.86;;;22.86;42.18
12536;BME280;6334;48.696;2.114;2022-07-18T03:15:05;100371.09;;;22.98;43.05
12536;BME280;6334;48.696;2.114;2022-07-18T03:17:36;100372.82;;;22.75;44.07
12536;BME280;6334;48.696;2.114;2022-07-18T03:20:06;100365.14;;;23.01;43.19
12536;BME280;6334;48.696;2.114;2022-07-18T03:22:37;100362.27;;;23.11;42.18
12536;BME280;6334;48.696;2.114;2022-07-18T03:25:07;100361.89;;;23.17;41.90
12536;BME280;6334;48.696;2.114;2022-07-18T03:27:38;100369.47;;;23.01;42.71
12536;BME280;6334;48.696;2.114;2022-07-18T03:30:08;100361.12;;;22.93;43.13
12536;BME280;6334;48.696;2.114;2022-07-18T03:32:39;100366.94;;;22.71;43.80
12536;BME280;6334;48.696;2.114;2022-07-18T03:35:09;100361.47;;;23.23;42.29
12536;BME280;6334;48.696;2.114;2022-07-18T03:37:40;100357.84;;;23.10;43.50
12536;BME280;6334;48.696;2.114;2022-07-18T03:40:10;100354.91;;;23.10;42.26
12536;BME280;6334;48.696;2.114;2022-07-18T03:42:41;100355.00;;;23.04;42.32
12536;BME280;6334;48.696;2.114;2022-07-18T03:45:11;100355.48;;;22.95;42.96
12536;BME280;6334;48.696;2.114;2022-07-18T03:47:44;100357.03;;;22.38;44.54
12536;BME280;6334;48.696;2.114;2022-07-18T03:50:13;100344.16;;;22.95;43.58
12536;BME280;6334;48.696;2.114;2022-07-18T03:52:43;100344.95;;;23.07;41.53
12536;BME280;6334;48.696;2.114;2022-07-18T03:55:14;100345.89;;;22.96;42.56
12536;BME280;6334;48.696;2.114;2022-07-18T03:57:44;100341.14;;;22.79;42.04
12536;BME280;6334;48.696;2.114;2022-07-18T04:00:14;100340.00;;;23.03;39.57
12536;BME280;6334;48.696;2.114;2022-07-18T04:02:46;100205.97;;;22.31;40.11
12536;BME280;6334;48.696;2.114;2022-07-18T04:05:15;100332.71;;;23.01;41.49
12536;BME280;6334;48.696;2.114;2022-07-18T04:07:46;100337.42;;;22.58;42.46
12536;BME280;6334;48.696;2.114;2022-07-18T04:10:16;100336.20;;;22.98;42.74
12536;BME280;6334;48.696;2.114;2022-07-18T04:12:52;100298.54;;;22.03;44.84
12536;BME280;6334;48.696;2.114;2022-07-18T04:15:23;100331.40;;;22.81;44.23
12536;BME280;6334;48.696;2.114;2022-07-18T04:17:53;100332.31;;;22.88;41.50
12536;BME280;6334;48.696;2.114;2022-07-18T04:20:24;100333.02;;;22.74;44.56
12536;BME280;6334;48.696;2.114;2022-07-18T04:22:55;100341.30;;;22.55;44.56
12536;BME280;6334;48.696;2.114;2022-07-18T04:25:25;100335.63;;;22.47;44.06
12536;BME280;6334;48.696;2.114;2022-07-18T04:27:56;100333.83;;;21.92;46.84
12536;BME280;6334;48.696;2.114;2022-07-18T04:30:26;100338.29;;;21.79;47.23
12536;BME280;6334;48.696;2.114;2022-07-18T04:32:56;100328.69;;;22.11;46.72
12536;BME280;6334;48.696;2.114;2022-07-18T04:35:26;100340.15;;;22.13;47.46
12536;BME280;6334;48.696;2.114;2022-07-18T04:37:57;100352.30;;;22.41;46.80
12536;BME280;6334;48.696;2.114;2022-07-18T04:40:27;100351.94;;;22.30;46.70
12536;BME280;6334;48.696;2.114;2022-07-18T04:42:57;100357.56;;;22.42;45.63
12536;BME280;6334;48.696;2.114;2022-07-18T04:45:28;100354.67;;;22.25;42.81
12536;BME280;6334;48.696;2.114;2022-07-18T04:47:58;100358.86;;;22.72;41.90
12536;BME280;6334;48.696;2.114;2022-07-18T04:50:29;100350.18;;;22.80;41.29
12536;BME280;6334;48.696;2.114;2022-07-18T04:52:59;100344.09;;;22.93;40.74
12536;BME280;6334;48.696;2.114;2022-07-18T04:55:30;100336.80;;;22.80;40.76
12536;BME280;6334;48.696;2.114;2022-07-18T04:58:00;100331.76;;;22.93;38.68
12536;BME280;6334;48.696;2.114;2022-07-18T05:00:31;100324.75;;;22.83;38.44
12536;BME280;6334;48.696;2.114;2022-07-18T05:03:01;100328.68;;;23.14;37.74
12536;BME280;6334;48.696;2.114;2022-07-18T05:05:32;100333.95;;;23.34;39.16
12536;BME280;6334;48.696;2.114;2022-07-18T05:08:02;100334.83;;;22.88;45.18
12536;BME280;6334;48.696;2.114;2022-07-18T05:10:33;100335.79;;;23.08;39.30
12536;BME280;6334;48.696;2.114;2022-07-18T05:13:03;100326.27;;;22.62;39.31
12536;BME280;6334;48.696;2.114;2022-07-18T05:15:34;100317.80;;;23.13;38.40
12536;BME280;6334;48.696;2.114;2022-07-18T05:18:04;100310.88;;;23.20;38.07
12536;BME280;6334;48.696;2.114;2022-07-18T05:20:34;100304.82;;;23.34;37.52
12536;BME280;6334;48.696;2.114;2022-07-18T05:23:05;100298.53;;;23.58;37.40
12536;BME280;6334;48.696;2.114;2022-07-18T05:25:35;100299.70;;;23.69;37.49
12536;BME280;6334;48.696;2.114;2022-07-18T05:28:06;100297.40;;;23.70;38.28
12536;BME280;6334;48.696;2.114;2022-07-18T05:30:36;100297.27;;;23.58;38.63
12536;BME280;6334;48.696;2.114;2022-07-18T05:33:07;100295.30;;;23.66;39.54
12536;BME280;6334;48.696;2.114;2022-07-18T05:35:37;100295.30;;;23.00;43.13
12536;BME280;6334;48.696;2.114;2022-07-18T05:38:08;100289.30;;;23.56;41.04
12536;BME280;6334;48.696;2.114;2022-07-18T05:40:38;100274.78;;;23.50;38.48
12536;BME280;6334;48.696;2.114;2022-07-18T05:43:09;100287.41;;;23.79;38.10
12536;BME280;6334;48.696;2.114;2022-07-18T05:45:39;100288.22;;;23.88;39.36
12536;BME280;6334;48.696;2.114;2022-07-18T05:48:09;100251.73;;;23.23;44.80
12536;BME280;6334;48.696;2.114;2022-07-18T05:50:40;100289.56;;;23.50;46.10
12536;BME280;6334;48.696;2.114;2022-07-18T05:53:11;100288.68;;;23.10;47.72
12536;BME280;6334;48.696;2.114;2022-07-18T05:55:42;100285.48;;;23.39;47.42
12536;BME280;6334;48.696;2.114;2022-07-18T05:58:13;100283.39;;;23.23;47.82
12536;BME280;6334;48.696;2.114;2022-07-18T06:00:44;100280.36;;;23.64;47.45
12536;BME280;6334;48.696;2.114;2022-07-18T06:03:17;100285.16;;;23.93;46.45
12536;BME280;6334;48.696;2.114;2022-07-18T06:05:47;100284.13;;;23.87;46.98
12536;BME280;6334;48.696;2.114;2022-07-18T06:08:18;100262.70;;;23.30;48.03
12536;BME280;6334;48.696;2.114;2022-07-18T06:10:48;100255.75;;;23.45;47.86
12536;BME280;6334;48.696;2.114;2022-07-18T06:13:19;100302.16;;;23.63;48.18
12536;BME280;6334;48.696;2.114;2022-07-18T06:15:49;100314.58;;;22.89;50.40
12536;BME280;6334;48.696;2.114;2022-07-18T06:18:20;100314.20;;;23.23;48.61
12536;BME280;6334;48.696;2.114;2022-07-18T06:20:50;100315.05;;;22.93;47.57
12536;BME280;6334;48.696;2.114;2022-07-18T06:23:21;100317.77;;;23.36;42.55
12536;BME280;6334;48.696;2.114;2022-07-18T06:25:51;100306.59;;;24.01;42.81
12536;BME280;6334;48.696;2.114;2022-07-18T06:28:22;100319.94;;;24.08;39.88
12536;BME280;6334;48.696;2.114;2022-07-18T06:30:55;100332.08;;;24.59;39.06
12536;BME280;6334;48.696;2.114;2022-07-18T06:33:25;100334.02;;;24.53;38.80
12536;BME280;6334;48.696;2.114;2022-07-18T06:35:56;100330.77;;;24.81;39.28
12536;BME280;6334;48.696;2.114;2022-07-18T06:38:26;100325.66;;;24.79;38.88
12536;BME280;6334;48.696;2.114;2022-07-18T06:40:57;100299.20;;;24.69;37.85
12536;BME280;6334;48.696;2.114;2022-07-18T06:43:27;100326.64;;;25.14;37.14
12536;BME280;6334;48.696;2.114;2022-07-18T06:45:58;100328.33;;;25.29;37.20
12536;BME280;6334;48.696;2.114;2022-07-18T06:48:28;100328.08;;;25.33;37.29
12536;BME280;6334;48.696;2.114;2022-07-18T06:50:59;100327.81;;;25.26;37.18
12536;BME280;6334;48.696;2.114;2022-07-18T06:53:29;100334.38;;;25.55;37.55
12536;BME280;6334;48.696;2.114;2022-07-18T06:56:00;100334.89;;;25.47;37.23
12536;BME280;6334;48.696;2.114;2022-07-18T06:58:30;100340.34;;;25.72;38.25
12536;BME280;6334;48.696;2.114;2022-07-18T07:01:02;100339.03;;;25.60;38.52
12536;BME280;6334;48.696;2.114;2022-07-18T07:03:35;100328.61;;;26.25;37.81
12536;BME280;6334;48.696;2.114;2022-07-18T07:06:05;100335.55;;;26.12;38.57
12536;BME280;6334;48.696;2.114;2022-07-18T07:08:36;100336.01;;;26.47;38.71
12536;BME280;6334;48.696;2.114;2022-07-18T07:11:06;100330.05;;;26.36;39.07
12536;BME280;6334;48.696;2.114;2022-07-18T07:13:37;100327.06;;;26.53;39.32
12536;BME280;6334;48.696;2.114;2022-07-18T07:16:07;100328.92;;;26.85;39.24
12536;BME280;6334;48.696;2.114;2022-07-18T07:18:37;100340.55;;;26.30;40.68
12536;BME280;6334;48.696;2.114;2022-07-18T07:21:08;100310.81;;;26.45;40.21
12536;BME280;6334;48.696;2.114;2022-07-18T07:26:05;100338.53;;;26.96;38.94
12536;BME280;6334;48.696;2.114;2022-07-18T07:28:34;100343.38;;;27.06;38.83
12536;BME280;6334;48.696;2.114;2022-07-18T07:31:05;100346.41;;;26.88;38.15
12536;BME280;6334;48.696;2.114;2022-07-18T07:33:35;100347.73;;;26.64;38.08
12536;BME280;6334;48.696;2.114;2022-07-18T07:36:06;100346.30;;;27.18;37.36
12536;BME280;6334;48.696;2.114;2022-07-18T07:38:36;100346.45;;;27.62;37.22
12536;BME280;6334;48.696;2.114;2022-07-18T07:41:07;100346.61;;;27.51;37.68
12536;BME280;6334;48.696;2.114;2022-07-18T07:43:37;100344.88;;;27.29;37.80
12536;BME280;6334;48.696;2.114;2022-07-18T07:46:08;100337.44;;;27.53;37.39
12536;BME280;6334;48.696;2.114;2022-07-18T07:48:38;100341.25;;;27.77;36.23
12536;BME280;6334;48.696;2.114;2022-07-18T07:51:08;100334.66;;;27.60;36.40
12536;BME280;6334;48.696;2.114;2022-07-18T07:53:39;100331.95;;;28.06;35.97
12536;BME280;6334;48.696;2.114;2022-07-18T07:56:09;100323.62;;;28.23;35.46
12536;BME280;6334;48.696;2.114;2022-07-18T07:58:40;100330.19;;;28.67;35.24
12536;BME280;6334;48.696;2.114;2022-07-18T08:01:10;100327.63;;;28.51;36.97
12536;BME280;6334;48.696;2.114;2022-07-18T08:03:41;100327.98;;;28.68;36.66
12536;BME280;6334;48.696;2.114;2022-07-18T08:06:11;100327.39;;;28.68;36.73
12536;BME280;6334;48.696;2.114;2022-07-18T08:08:42;100326.59;;;28.55;36.04
12536;BME280;6334;48.696;2.114;2022-07-18T08:11:12;100327.02;;;29.02;36.09
12536;BME280;6334;48.696;2.114;2022-07-18T08:13:43;100327.84;;;29.05;36.30
12536;BME280;6334;48.696;2.114;2022-07-18T08:16:13;100323.95;;;28.70;32.63
12536;BME280;6334;48.696;2.114;2022-07-18T08:18:44;100323.85;;;29.12;33.77
12536;BME280;6334;48.696;2.114;2022-07-18T08:21:14;100319.02;;;29.41;35.48
12536;BME280;6334;48.696;2.114;2022-07-18T08:23:44;100318.30;;;29.23;36.01
12536;BME280;6334;48.696;2.114;2022-07-18T08:26:15;100310.99;;;29.53;35.23
12536;BME280;6334;48.696;2.114;2022-07-18T08:28:45;100303.45;;;29.62;32.92
12536;BME280;6334;48.696;2.114;2022-07-18T08:31:16;100301.86;;;29.63;30.85
12536;BME280;6334;48.696;2.114;2022-07-18T08:33:46;100310.72;;;29.88;31.43
12536;BME280;6334;48.696;2.114;2022-07-18T08:36:17;100312.67;;;29.99;31.94
12536;BME280;6334;48.696;2.114;2022-07-18T08:38:47;100314.17;;;30.15;31.03
12536;BME280;6334;48.696;2.114;2022-07-18T08:41:18;100314.17;;;30.29;33.59
12536;BME280;6334;48.696;2.114;2022-07-18T08:43:48;100309.31;;;30.14;33.56
12536;BME280;6334;48.696;2.114;2022-07-18T08:46:19;100307.94;;;30.12;33.84
12536;BME280;6334;48.696;2.114;2022-07-18T08:48:49;100314.00;;;30.29;34.15
12536;BME280;6334;48.696;2.114;2022-07-18T08:51:19;100312.44;;;30.50;33.05
12536;BME280;6334;48.696;2.114;2022-07-18T08:53:50;100309.52;;;30.11;32.84
12536;BME280;6334;48.696;2.114;2022-07-18T08:56:20;100312.69;;;30.63;31.83
12536;BME280;6334;48.696;2.114;2022-07-18T08:58:53;100307.78;;;30.79;30.47
12536;BME280;6334;48.696;2.114;2022-07-18T09:01:24;100311.78;;;30.73;29.70
12536;BME280;6334;48.696;2.114;2022-07-18T09:03:54;100312.14;;;30.67;29.17
12536;BME280;6334;48.696;2.114;2022-07-18T09:06:44;100311.76;;;30.63;28.99
12536;BME280;6334;48.696;2.114;2022-07-18T09:09:14;100309.98;;;30.79;28.32
12536;BME280;6334;48.696;2.114;2022-07-18T09:11:50;100313.56;;;31.03;27.50
12536;BME280;6334;48.696;2.114;2022-07-18T09:17:05;100315.25;;;31.08;27.56
12536;BME280;6334;48.696;2.114;2022-07-18T09:19:35;100313.36;;;31.07;27.01
12536;BME280;6334;48.696;2.114;2022-07-18T09:22:12;100316.59;;;31.26;27.80
12536;BME280;6334;48.696;2.114;2022-07-18T09:24:51;100300.88;;;31.08;27.49
12536;BME280;6334;48.696;2.114;2022-07-18T09:30:13;100324.30;;;31.13;26.91
12536;BME280;6334;48.696;2.114;2022-07-18T09:32:42;100315.89;;;31.23;26.64
12536;BME280;6334;48.696;2.114;2022-07-18T09:35:13;100317.85;;;31.59;26.36
12536;BME280;6334;48.696;2.114;2022-07-18T09:38:28;100314.56;;;31.64;27.16
12536;BME280;6334;48.696;2.114;2022-07-18T09:40:19;100314.69;;;31.56;26.07
12536;BME280;6334;48.696;2.114;2022-07-18T09:42:52;100319.13;;;31.84;26.04
12536;BME280;6334;48.696;2.114;2022-07-18T09:45:25;100321.94;;;31.69;24.65
12536;BME280;6334;48.696;2.114;2022-07-18T09:47:53;100315.91;;;31.53;23.89
12536;BME280;6334;48.696;2.114;2022-07-18T09:50:38;100314.59;;;31.66;24.81
12536;BME280;6334;48.696;2.114;2022-07-18T09:53:13;100317.60;;;31.84;23.94
12536;BME280;6334;48.696;2.114;2022-07-18T09:55:57;100315.59;;;31.63;25.03
12536;BME280;6334;48.696;2.114;2022-07-18T09:58:26;100316.92;;;31.99;24.91
12536;BME280;6334;48.696;2.114;2022-07-18T10:00:56;100320.86;;;32.14;24.94
12536;BME280;6334;48.696;2.114;2022-07-18T10:03:26;100322.00;;;32.54;24.74
12536;BME280;6334;48.696;2.114;2022-07-18T10:05:57;100322.06;;;32.14;24.68
12536;BME280;6334;48.696;2.114;2022-07-18T10:08:28;100320.11;;;32.29;24.50
12536;BME280;6334;48.696;2.114;2022-07-18T10:10:58;100324.33;;;32.72;25.27
12536;BME280;6334;48.696;2.114;2022-07-18T10:13:28;100318.92;;;32.51;25.21
12536;BME280;6334;48.696;2.114;2022-07-18T10:15:58;100325.42;;;32.61;25.10
12536;BME280;6334;48.696;2.114;2022-07-18T10:18:29;100324.56;;;32.19;25.27
12536;BME280;6334;48.696;2.114;2022-07-18T10:21:03;100322.37;;;32.43;24.31
12536;BME280;6334;48.696;2.114;2022-07-18T10:23:33;100295.08;;;32.34;24.69
12536;BME280;6334;48.696;2.114;2022-07-18T10:26:21;100319.40;;;32.82;24.62
12536;BME280;6334;48.696;2.114;2022-07-18T10:31:27;100321.31;;;32.93;23.99
12536;BME280;6334;48.696;2.114;2022-07-18T10:34:10;100320.48;;;32.57;24.36
12536;BME280;6334;48.696;2.114;2022-07-18T10:36:39;100316.64;;;33.12;25.12
12536;BME280;6334;48.696;2.114;2022-07-18T10:39:09;100312.15;;;32.82;24.20
12536;BME280;6334;48.696;2.114;2022-07-18T10:57:36;100298.86;;;33.33;24.96
12536;BME280;6334;48.696;2.114;2022-07-18T11:00:13;100297.63;;;33.18;25.00
12536;BME280;6334;48.696;2.114;2022-07-18T11:02:51;100301.52;;;33.35;24.63
12536;BME280;6334;48.696;2.114;2022-07-18T11:15:56;100292.50;;;33.93;23.87
12536;BME280;6334;48.696;2.114;2022-07-18T11:18:26;100290.48;;;33.54;24.01
12536;BME280;6334;48.696;2.114;2022-07-18T11:20:56;100284.79;;;33.39;23.18
12536;BME280;6334;48.696;2.114;2022-07-18T11:23:28;100286.41;;;33.66;23.33
12536;BME280;6334;48.696;2.114;2022-07-18T11:25:58;100285.88;;;33.60;22.76
12536;BME280;6334;48.696;2.114;2022-07-18T11:28:28;100284.37;;;33.51;22.16
12536;BME280;6334;48.696;2.114;2022-07-18T11:31:02;100287.59;;;33.61;23.08
12536;BME280;6334;48.696;2.114;2022-07-18T11:33:33;100281.34;;;33.81;22.08
12536;BME280;6334;48.696;2.114;2022-07-18T11:36:03;100282.89;;;33.67;22.02
12536;BME280;6334;48.696;2.114;2022-07-18T11:38:32;100289.84;;;34.02;22.21
12536;BME280;6334;48.696;2.114;2022-07-18T11:41:03;100284.97;;;34.08;21.10
12536;BME280;6334;48.696;2.114;2022-07-18T11:43:33;100288.95;;;34.28;21.27
12536;BME280;6334;48.696;2.114;2022-07-18T11:46:07;100284.77;;;34.27;21.17
12536;BME280;6334;48.696;2.114;2022-07-18T11:48:37;100279.29;;;34.47;21.85
12536;BME280;6334;48.696;2.114;2022-07-18T11:51:17;100277.08;;;34.42;21.38
12536;BME280;6334;48.696;2.114;2022-07-18T11:53:51;100276.53;;;34.49;21.60
12536;BME280;6334;48.696;2.114;2022-07-18T11:56:21;100272.28;;;34.61;20.48
12536;BME280;6334;48.696;2.114;2022-07-18T11:58:51;100267.91;;;34.24;20.61
12536;BME280;6334;48.696;2.114;2022-07-18T12:01:33;100272.38;;;34.27;19.36
12536;BME280;6334;48.696;2.114;2022-07-18T12:04:03;100264.59;;;34.27;20.27
12536;BME280;6334;48.696;2.114;2022-07-18T12:06:34;100266.52;;;34.37;19.37
12536;BME280;6334;48.696;2.114;2022-07-18T12:09:04;100264.29;;;34.55;20.65
12536;BME280;6334;48.696;2.114;2022-07-18T12:11:37;100262.53;;;34.45;20.08
12536;BME280;6334;48.696;2.114;2022-07-18T12:16:39;100248.19;;;34.75;19.66
12536;BME280;6334;48.696;2.114;2022-07-18T12:19:12;100247.98;;;34.66;19.62
12536;BME280;6334;48.696;2.114;2022-07-18T12:21:46;100246.90;;;34.75;19.92
12536;BME280;6334;48.696;2.114;2022-07-18T12:24:40;100242.97;;;34.78;19.67
12536;BME280;6334;48.696;2.114;2022-07-18T12:30:06;100242.22;;;34.56;20.10
12536;BME280;6334;48.696;2.114;2022-07-18T12:35:26;100241.33;;;34.82;19.82
12536;BME280;6334;48.696;2.114;2022-07-18T12:37:59;100242.72;;;34.78;19.83
12536;BME280;6334;48.696;2.114;2022-07-18T12:43:21;100228.85;;;34.74;20.84
12536;BME280;6334;48.696;2.114;2022-07-18T12:45:47;100226.95;;;34.84;20.26
12536;BME280;6334;48.696;2.114;2022-07-18T12:48:17;100228.45;;;34.71;19.03
12536;BME280;6334;48.696;2.114;2022-07-18T12:50:57;100225.23;;;34.54;20.22
12536;BME280;6334;48.696;2.114;2022-07-18T12:53:27;100220.23;;;34.60;19.39
12536;BME280;6334;48.696;2.114;2022-07-18T12:55:57;100217.05;;;34.68;19.77
12536;BME280;6334;48.696;2.114;2022-07-18T12:58:28;100218.42;;;34.75;19.79
12536;BME280;6334;48.696;2.114;2022-07-18T13:00:58;100211.93;;;35.04;20.34
12536;BME280;6334;48.696;2.114;2022-07-18T13:03:29;100210.61;;;34.97;20.77
12536;BME280;6334;48.696;2.114;2022-07-18T13:05:59;100203.80;;;35.03;20.46
12536;BME280;6334;48.696;2.114;2022-07-18T13:08:30;100189.73;;;35.00;20.17
12536;BME280;6334;48.696;2.114;2022-07-18T13:11:00;100202.94;;;34.94;19.15
12536;BME280;6334;48.696;2.114;2022-07-18T13:13:31;100177.67;;;34.63;19.42
12536;BME280;6334;48.696;2.114;2022-07-18T13:16:01;100195.25;;;34.64;20.11
12536;BME280;6334;48.696;2.114;2022-07-18T13:18:31;100191.25;;;34.99;19.59
12536;BME280;6334;48.696;2.114;2022-07-18T13:21:02;100193.73;;;35.10;20.05
12536;BME280;6334;48.696;2.114;2022-07-18T13:23:32;100190.11;;;35.13;20.48
12536;BME280;6334;48.696;2.114;2022-07-18T13:26:03;100187.80;;;34.94;20.05
12536;BME280;6334;48.696;2.114;2022-07-18T13:28:33;100184.86;;;35.06;19.97
12536;BME280;6334;48.696;2.114;2022-07-18T13:31:04;100181.83;;;35.01;19.98
12536;BME280;6334;48.696;2.114;2022-07-18T13:33:34;100172.58;;;34.93;19.65
12536;BME280;6334;48.696;2.114;2022-07-18T13:36:05;100179.04;;;34.87;19.75
12536;BME280;6334;48.696;2.114;2022-07-18T13:38:35;100171.94;;;35.07;19.99
12536;BME280;6334;48.696;2.114;2022-07-18T13:41:06;100173.21;;;35.26;19.52
12536;BME280;6334;48.696;2.114;2022-07-18T13:43:37;100171.52;;;35.16;19.42
12536;BME280;6334;48.696;2.114;2022-07-18T13:46:07;100165.58;;;35.28;19.64
12536;BME280;6334;48.696;2.114;2022-07-18T13:48:38;100166.84;;;35.06;19.67
12536;BME280;6334;48.696;2.114;2022-07-18T13:51:08;100119.78;;;34.98;20.16
12536;BME280;6334;48.696;2.114;2022-07-18T13:53:38;100160.41;;;35.25;20.24
12536;BME280;6334;48.696;2.114;2022-07-18T13:56:08;100155.63;;;35.34;20.40
12536;BME280;6334;48.696;2.114;2022-07-18T13:58:39;100153.66;;;35.34;20.27
12536;BME280;6334;48.696;2.114;2022-07-18T14:01:11;100150.34;;;35.47;20.46
12536;BME280;6334;48.696;2.114;2022-07-18T14:03:40;100150.45;;;35.32;19.40
12536;BME280;6334;48.696;2.114;2022-07-18T14:06:10;100146.17;;;35.18;19.35
12536;BME280;6334;48.696;2.114;2022-07-18T14:08:41;100145.69;;;35.06;19.48